Time;durP1;ratioP1;P1;durP2;ratioP2;P2;SDS_P1;SDS_P2;PMS_P1;PMS_P2;Temp;Humidity;BMP_temperature;BMP_pressure;BME280_temperature;BME280_humidity;BME280_pressure;Samples;Min_cycle;Max_cycle;Signal;HPM_P1;HPM_P2
2023/10/06 00:02:20;;;;;;;7.47;2.00;;;;;;;;;;5127750;27;41188;-69
2023/10/06 00:04:51;;;;;;;3.47;2.17;;;;;;;;;;5124360;27;40731;-69
2023/10/06 00:07:20;;;;;;;6.50;2.10;;;;;;;;;;5126126;27;40047;-69
2023/10/06 00:09:49;;;;;;;4.32;2.08;;;;;;;;;;5127791;27;41372;-70
2023/10/06 00:12:17;;;;;;;4.97;2.60;;;;;;;;;;5129364;27;41748;-69
2023/10/06 00:14:48;;;;;;;5.30;2.53;;;;;;;;;;5125502;27;40920;-69
2023/10/06 00:17:17;;;;;;;4.88;2.20;;;;;;;;;;5129184;27;42008;-69
2023/10/06 00:19:46;;;;;;;5.13;2.50;;;;;;;;;;5129116;27;40004;-69
2023/10/06 00:22:17;;;;;;;5.20;2.30;;;;;;;;;;5128304;27;42227;-70
2023/10/06 00:24:47;;;;;;;3.65;2.20;;;;;;;;;;5128759;27;43176;-69
2023/10/06 00:27:20;;;;;;;2.60;1.88;;;;;;;;;;5128956;27;39818;-70
2023/10/06 00:29:52;;;;;;;3.33;2.15;;;;;;;;;;5127452;27;41607;-69
2023/10/06 00:32:23;;;;;;;4.03;2.25;;;;;;;;;;5125488;27;40593;-69
2023/10/06 00:34:52;;;;;;;5.15;1.90;;;;;;;;;;5116294;27;40735;-69
2023/10/06 00:37:22;;;;;;;6.85;2.63;;;;;;;;;;5128383;27;42582;-69
2023/10/06 00:39:52;;;;;;;5.43;2.50;;;;;;;;;;5128184;27;40691;-69
2023/10/06 00:42:20;;;;;;;4.20;1.80;;;;;;;;;;5127012;27;40832;-70
2023/10/06 00:44:48;;;;;;;3.47;1.90;;;;;;;;;;5127244;27;42005;-70
2023/10/06 00:47:17;;;;;;;5.72;2.33;;;;;;;;;;5127140;27;39986;-70
2023/10/06 00:49:46;;;;;;;5.65;2.53;;;;;;;;;;5126279;27;41789;-70
2023/10/06 00:52:15;;;;;;;3.78;1.98;;;;;;;;;;5128158;27;43706;-69
2023/10/06 00:54:44;;;;;;;5.03;2.40;;;;;;;;;;5128133;27;40258;-69
2023/10/06 00:57:12;;;;;;;2.80;2.17;;;;;;;;;;5127637;27;42551;-69
2023/10/06 00:59:41;;;;;;;3.78;2.20;;;;;;;;;;5130800;27;43152;-69
2023/10/06 01:02:11;;;;;;;3.95;2.85;;;;;;;;;;5115207;27;39830;-69
2023/10/06 01:04:44;;;;;;;3.72;2.50;;;;;;;;;;5131076;27;43156;-69
2023/10/06 01:07:16;;;;;;;2.40;2.10;;;;;;;;;;5114375;27;41280;-70
2023/10/06 01:09:56;;;;;;;2.95;1.95;;;;;;;;;;5128421;27;41626;-70
2023/10/06 01:12:26;;;;;;;2.33;1.92;;;;;;;;;;5127602;27;41589;-69
2023/10/06 01:15:05;;;;;;;3.35;1.92;;;;;;;;;;5124651;27;41425;-69
2023/10/06 01:17:33;;;;;;;4.63;3.15;;;;;;;;;;5125501;27;42471;-70
2023/10/06 01:20:03;;;;;;;4.15;2.47;;;;;;;;;;5130708;27;41341;-70
2023/10/06 01:22:41;;;;;;;4.90;2.10;;;;;;;;;;5114879;27;38878;-69
2023/10/06 01:25:13;;;;;;;4.32;2.45;;;;;;;;;;5127544;27;42627;-70
2023/10/06 01:27:43;;;;;;;3.30;2.00;;;;;;;;;;5114226;27;39728;-70
2023/10/06 01:30:18;;;;;;;4.30;2.83;;;;;;;;;;5131709;27;42038;-69
2023/10/06 01:32:49;;;;;;;3.58;2.25;;;;;;;;;;5127558;27;42118;-69
2023/10/06 01:35:20;;;;;;;4.72;2.13;;;;;;;;;;5116894;27;38761;-69
2023/10/06 01:37:51;;;;;;;4.15;2.40;;;;;;;;;;5124236;27;41221;-69
2023/10/06 01:40:36;;;;;;;2.47;1.77;;;;;;;;;;5127545;27;42445;-70
2023/10/06 01:43:09;;;;;;;4.45;2.90;;;;;;;;;;5129377;27;38688;-70
2023/10/06 01:45:43;;;;;;;4.60;3.00;;;;;;;;;;5108302;27;42915;-70
2023/10/06 01:48:24;;;;;;;3.63;1.90;;;;;;;;;;5117860;27;41079;-70
2023/10/06 01:50:54;;;;;;;3.83;2.13;;;;;;;;;;5123297;27;44071;-69
2023/10/06 01:53:31;;;;;;;2.40;2.08;;;;;;;;;;5128450;27;42287;-70
2023/10/06 01:56:01;;;;;;;4.70;2.78;;;;;;;;;;5127308;27;40332;-69
2023/10/06 01:58:29;;;;;;;4.32;2.13;;;;;;;;;;5142803;27;40474;-70
2023/10/06 02:00:57;;;;;;;4.47;2.88;;;;;;;;;;5126250;27;40952;-69
2023/10/06 02:03:25;;;;;;;4.53;2.47;;;;;;;;;;5146121;27;39245;-69
2023/10/06 02:05:59;;;;;;;5.22;2.70;;;;;;;;;;5128349;27;41202;-69
2023/10/06 02:08:30;;;;;;;3.33;2.35;;;;;;;;;;5129983;27;39612;-70
2023/10/06 02:11:01;;;;;;;4.00;2.58;;;;;;;;;;5128769;27;40146;-70
2023/10/06 02:13:29;;;;;;;3.58;2.30;;;;;;;;;;5128115;27;41306;-69
2023/10/06 02:15:58;;;;;;;2.70;1.92;;;;;;;;;;5129694;27;40280;-69
2023/10/06 02:18:36;;;;;;;3.85;2.65;;;;;;;;;;5130346;27;41662;-70
2023/10/06 02:21:06;;;;;;;3.05;2.60;;;;;;;;;;5145623;27;40531;-70
2023/10/06 02:23:37;;;;;;;3.50;2.78;;;;;;;;;;5128255;27;38873;-69
2023/10/06 02:26:08;;;;;;;3.97;2.20;;;;;;;;;;5126309;27;42328;-69
2023/10/06 02:28:40;;;;;;;4.03;2.85;;;;;;;;;;5129421;27;41693;-69
2023/10/06 02:31:10;;;;;;;5.00;3.00;;;;;;;;;;5126773;27;42598;-69
2023/10/06 02:33:39;;;;;;;2.92;2.22;;;;;;;;;;5126741;27;42379;-70
2023/10/06 02:36:21;;;;;;;4.10;2.03;;;;;;;;;;5127574;27;38815;-70
2023/10/06 02:38:51;;;;;;;5.18;2.35;;;;;;;;;;5126510;27;42099;-69
2023/10/06 02:41:25;;;;;;;2.60;2.15;;;;;;;;;;5128054;27;41136;-70
2023/10/06 02:43:54;;;;;;;3.55;2.53;;;;;;;;;;5145013;27;39895;-70
2023/10/06 02:46:23;;;;;;;4.57;2.17;;;;;;;;;;5130600;27;41537;-70
2023/10/06 02:48:51;;;;;;;3.78;2.15;;;;;;;;;;5121927;27;41746;-69
2023/10/06 02:51:20;;;;;;;3.42;2.33;;;;;;;;;;5128520;27;41101;-70
2023/10/06 02:53:50;;;;;;;4.03;1.85;;;;;;;;;;5129366;27;43003;-70
2023/10/06 02:56:29;;;;;;;1.83;1.48;;;;;;;;;;5129429;27;42499;-69
2023/10/06 02:59:06;;;;;;;5.43;2.00;;;;;;;;;;5124977;27;42266;-69
2023/10/06 03:01:38;;;;;;;1.73;1.38;;;;;;;;;;5128114;27;41833;-69
2023/10/06 03:04:08;;;;;;;2.88;1.40;;;;;;;;;;5127397;27;40279;-69
2023/10/06 03:06:36;;;;;;;2.50;1.73;;;;;;;;;;5128436;27;40982;-69
2023/10/06 03:09:07;;;;;;;3.85;2.85;;;;;;;;;;5131276;27;40464;-70
2023/10/06 03:11:38;;;;;;;5.18;2.80;;;;;;;;;;5126065;27;40387;-70
2023/10/06 03:14:08;;;;;;;2.40;1.65;;;;;;;;;;5128423;27;41018;-70
2023/10/06 03:16:39;;;;;;;1.42;1.27;;;;;;;;;;5130039;27;40975;-69
2023/10/06 03:19:12;;;;;;;4.93;2.85;;;;;;;;;;5126859;27;40079;-69
2023/10/06 03:21:45;;;;;;;3.08;1.90;;;;;;;;;;5126720;27;40530;-69
2023/10/06 03:24:20;;;;;;;4.60;2.40;;;;;;;;;;5120182;27;40993;-70
2023/10/06 03:26:51;;;;;;;3.60;1.90;;;;;;;;;;5127066;27;41933;-69
2023/10/06 03:29:34;;;;;;;3.75;2.47;;;;;;;;;;5127471;27;40710;-69
2023/10/06 03:32:11;;;;;;;1.83;1.50;;;;;;;;;;5125876;27;40457;-69
2023/10/06 03:34:40;;;;;;;3.25;2.10;;;;;;;;;;5112706;27;41648;-69
2023/10/06 03:37:09;;;;;;;2.53;1.70;;;;;;;;;;5126879;27;41169;-69
2023/10/06 03:39:48;;;;;;;2.97;1.88;;;;;;;;;;5126984;27;39447;-69
2023/10/06 03:42:20;;;;;;;2.30;1.77;;;;;;;;;;5127490;27;40032;-69
2023/10/06 03:44:52;;;;;;;3.35;1.98;;;;;;;;;;5126748;27;39189;-70
2023/10/06 03:47:21;;;;;;;2.30;2.03;;;;;;;;;;5125642;27;41488;-69
2023/10/06 03:49:49;;;;;;;1.98;1.50;;;;;;;;;;5126688;27;41038;-69
2023/10/06 03:52:17;;;;;;;3.03;2.22;;;;;;;;;;5128766;27;39904;-70
2023/10/06 03:54:48;;;;;;;4.00;2.78;;;;;;;;;;5128309;27;42321;-69
2023/10/06 03:57:19;;;;;;;2.55;1.40;;;;;;;;;;5125846;27;43300;-70
2023/10/06 03:59:48;;;;;;;2.90;1.33;;;;;;;;;;5125033;27;41422;-69
2023/10/06 04:02:18;;;;;;;2.58;1.40;;;;;;;;;;5125384;27;42146;-70
2023/10/06 04:04:49;;;;;;;2.38;1.63;;;;;;;;;;5121192;27;41192;-70
2023/10/06 04:07:19;;;;;;;2.50;1.50;;;;;;;;;;5126384;27;41397;-70
2023/10/06 04:09:49;;;;;;;3.22;1.80;;;;;;;;;;5127536;27;43263;-69
2023/10/06 04:12:18;;;;;;;4.57;2.10;;;;;;;;;;5129043;27;40055;-70
2023/10/06 04:14:46;;;;;;;2.75;2.03;;;;;;;;;;5127178;27;41562;-70
2023/10/06 04:17:16;;;;;;;6.28;2.13;;;;;;;;;;5128690;27;42220;-69
2023/10/06 04:19:45;;;;;;;2.10;1.70;;;;;;;;;;5129223;27;39719;-69
2023/10/06 04:22:13;;;;;;;4.53;2.40;;;;;;;;;;5127947;27;42181;-70
2023/10/06 04:24:41;;;;;;;1.80;1.40;;;;;;;;;;5128649;27;40270;-69
2023/10/06 04:27:09;;;;;;;1.90;1.45;;;;;;;;;;5128087;27;41372;-70
2023/10/06 04:29:39;;;;;;;2.20;1.60;;;;;;;;;;5124822;27;41645;-69
2023/10/06 04:32:13;;;;;;;2.60;1.30;;;;;;;;;;5128802;27;40131;-70
2023/10/06 04:34:43;;;;;;;2.45;1.27;;;;;;;;;;5132051;27;42149;-69
2023/10/06 04:37:13;;;;;;;1.67;1.30;;;;;;;;;;5132112;27;42413;-69
2023/10/06 04:39:42;;;;;;;2.85;1.73;;;;;;;;;;5116594;27;41368;-69
2023/10/06 04:42:10;;;;;;;2.63;1.75;;;;;;;;;;5131822;27;41222;-70
2023/10/06 04:44:38;;;;;;;3.65;2.22;;;;;;;;;;5131923;27;41310;-69
2023/10/06 04:47:09;;;;;;;2.67;2.03;;;;;;;;;;5132084;27;42260;-69
2023/10/06 04:49:37;;;;;;;1.88;1.35;;;;;;;;;;5129856;27;40579;-69
2023/10/06 04:52:06;;;;;;;3.05;1.63;;;;;;;;;;5131673;27;39971;-69
2023/10/06 04:54:34;;;;;;;3.53;2.00;;;;;;;;;;5131342;27;41659;-69
2023/10/06 04:57:03;;;;;;;1.95;1.45;;;;;;;;;;5128110;27;42738;-70
2023/10/06 04:59:32;;;;;;;3.03;1.40;;;;;;;;;;5131914;27;41116;-70
2023/10/06 05:02:02;;;;;;;1.52;1.30;;;;;;;;;;5130686;27;41595;-69
2023/10/06 05:04:30;;;;;;;2.30;1.20;;;;;;;;;;5121955;27;42354;-69
2023/10/06 05:07:00;;;;;;;2.60;1.63;;;;;;;;;;5131453;27;41545;-70
2023/10/06 05:09:29;;;;;;;2.95;2.58;;;;;;;;;;5129641;27;41540;-69
2023/10/06 05:11:57;;;;;;;3.63;1.98;;;;;;;;;;5120455;27;39931;-69
2023/10/06 05:14:25;;;;;;;5.13;2.85;;;;;;;;;;5122131;27;42292;-70
2023/10/06 05:16:53;;;;;;;3.80;2.70;;;;;;;;;;5124318;27;41767;-69
2023/10/06 05:19:21;;;;;;;2.78;1.50;;;;;;;;;;5123406;27;39958;-70
2023/10/06 05:21:52;;;;;;;2.60;1.60;;;;;;;;;;5116578;27;42313;-69
2023/10/06 05:24:20;;;;;;;2.35;1.73;;;;;;;;;;5128366;27;43208;-69
2023/10/06 05:26:50;;;;;;;2.15;1.73;;;;;;;;;;5131185;27;41307;-69
2023/10/06 05:29:18;;;;;;;2.63;1.77;;;;;;;;;;5130599;27;41795;-70
2023/10/06 05:31:46;;;;;;;2.45;1.52;;;;;;;;;;5130249;27;40953;-69
2023/10/06 05:34:17;;;;;;;3.78;2.25;;;;;;;;;;5131743;27;41628;-69
2023/10/06 05:36:45;;;;;;;6.60;3.25;;;;;;;;;;5127827;27;41594;-69
2023/10/06 05:39:13;;;;;;;2.70;1.70;;;;;;;;;;5129970;27;40229;-69
2023/10/06 05:41:44;;;;;;;7.05;3.60;;;;;;;;;;5131640;27;42555;-69
2023/10/06 05:44:13;;;;;;;2.63;1.60;;;;;;;;;;5130476;27;41698;-69
2023/10/06 05:46:42;;;;;;;3.13;2.22;;;;;;;;;;5130120;27;39980;-69
2023/10/06 05:49:11;;;;;;;6.43;4.78;;;;;;;;;;5131114;27;42318;-70
2023/10/06 05:51:39;;;;;;;3.75;2.75;;;;;;;;;;5130688;27;40443;-69
2023/10/06 05:54:12;;;;;;;4.40;3.30;;;;;;;;;;5130205;27;41591;-69
2023/10/06 05:56:42;;;;;;;4.50;2.60;;;;;;;;;;5129357;27;42075;-70
2023/10/06 05:59:12;;;;;;;3.95;2.38;;;;;;;;;;5127152;27;40366;-69
2023/10/06 06:01:44;;;;;;;8.05;3.85;;;;;;;;;;5130149;27;42216;-68
2023/10/06 06:04:15;;;;;;;6.28;3.58;;;;;;;;;;5128390;27;42890;-67
2023/10/06 06:06:46;;;;;;;6.70;2.38;;;;;;;;;;5129814;27;39941;-69
2023/10/06 06:09:15;;;;;;;5.43;2.22;;;;;;;;;;5130523;27;42368;-69
2023/10/06 06:11:43;;;;;;;5.30;2.80;;;;;;;;;;5129197;27;40268;-69
2023/10/06 06:14:11;;;;;;;4.22;3.28;;;;;;;;;;5129743;27;42812;-69
2023/10/06 06:16:46;;;;;;;3.70;2.38;;;;;;;;;;5123235;27;42441;-69
2023/10/06 06:19:14;;;;;;;3.35;2.08;;;;;;;;;;5119383;27;40336;-69
2023/10/06 06:21:42;;;;;;;8.63;4.60;;;;;;;;;;5128296;27;42449;-70
2023/10/06 06:24:10;;;;;;;3.50;2.22;;;;;;;;;;5130095;27;43934;-69
2023/10/06 06:26:38;;;;;;;6.32;3.63;;;;;;;;;;5128773;27;40240;-69
2023/10/06 06:29:08;;;;;;;4.65;3.25;;;;;;;;;;5123475;27;42610;-68
2023/10/06 06:31:37;;;;;;;6.43;2.58;;;;;;;;;;5130585;27;42009;-68
2023/10/06 06:34:06;;;;;;;5.97;3.22;;;;;;;;;;5129901;27;41444;-68
2023/10/06 06:36:35;;;;;;;4.32;2.83;;;;;;;;;;5126400;27;42094;-68
2023/10/06 06:39:03;;;;;;;4.38;3.22;;;;;;;;;;5124913;27;40062;-68
2023/10/06 06:41:33;;;;;;;5.70;2.25;;;;;;;;;;5129431;27;41457;-68
2023/10/06 06:44:01;;;;;;;6.65;3.30;;;;;;;;;;5128985;27;42058;-67
2023/10/06 06:46:29;;;;;;;10.38;3.17;;;;;;;;;;5118343;27;39915;-68
2023/10/06 06:48:59;;;;;;;8.65;2.88;;;;;;;;;;5121193;27;42476;-68
2023/10/06 06:51:30;;;;;;;6.53;3.58;;;;;;;;;;5126861;27;40707;-68
2023/10/06 06:53:59;;;;;;;9.07;2.97;;;;;;;;;;5128209;27;41622;-68
2023/10/06 06:56:28;;;;;;;10.15;2.65;;;;;;;;;;5125656;27;42839;-68
2023/10/06 06:58:59;;;;;;;8.75;3.63;;;;;;;;;;5126996;27;40930;-69
2023/10/06 07:01:28;;;;;;;7.30;3.30;;;;;;;;;;5126485;27;42598;-69
2023/10/06 07:04:00;;;;;;;10.05;3.30;;;;;;;;;;5128634;27;43152;-70
2023/10/06 07:06:30;;;;;;;4.68;2.85;;;;;;;;;;5113548;27;40601;-71
2023/10/06 07:08:59;;;;;;;5.50;3.53;;;;;;;;;;5125730;27;42349;-71
2023/10/06 07:11:28;;;;;;;5.00;2.83;;;;;;;;;;5119558;27;41910;-71
2023/10/06 07:13:56;;;;;;;5.72;2.70;;;;;;;;;;5128388;27;40308;-72
2023/10/06 07:16:25;;;;;;;7.00;2.72;;;;;;;;;;5125385;27;42063;-71
2023/10/06 07:18:53;;;;;;;5.03;2.35;;;;;;;;;;5124718;27;40058;-72
2023/10/06 07:21:22;;;;;;;5.05;2.17;;;;;;;;;;5128440;27;42125;-69
2023/10/06 07:23:56;;;;;;;5.22;2.55;;;;;;;;;;5126489;27;41839;-69
2023/10/06 07:26:24;;;;;;;4.10;2.42;;;;;;;;;;5125111;27;41321;-69
2023/10/06 07:28:53;;;;;;;6.80;3.40;;;;;;;;;;5124300;27;42301;-70
2023/10/06 07:31:21;;;;;;;8.13;3.05;;;;;;;;;;5128441;27;41685;-70
2023/10/06 07:33:51;;;;;;;5.78;2.72;;;;;;;;;;5121697;27;39808;-70
2023/10/06 07:36:20;;;;;;;8.85;2.65;;;;;;;;;;5121217;27;43366;-71
2023/10/06 07:38:49;;;;;;;15.07;3.45;;;;;;;;;;5122440;27;41938;-71
2023/10/06 07:41:18;;;;;;;4.47;2.80;;;;;;;;;;5128017;27;42276;-72
2023/10/06 07:43:48;;;;;;;6.72;2.85;;;;;;;;;;5120611;27;42283;-70
2023/10/06 07:46:16;;;;;;;9.40;3.03;;;;;;;;;;5126797;27;40204;-69
2023/10/06 07:48:45;;;;;;;5.55;2.47;;;;;;;;;;5128651;27;42494;-69
2023/10/06 07:51:14;;;;;;;8.25;2.88;;;;;;;;;;5128218;27;42968;-72
2023/10/06 07:53:43;;;;;;;10.30;3.25;;;;;;;;;;5127737;27;39910;-71
2023/10/06 07:56:11;;;;;;;8.05;3.47;;;;;;;;;;5124827;27;41475;-70
2023/10/06 07:58:42;;;;;;;7.88;3.08;;;;;;;;;;5126627;27;42506;-72
2023/10/06 08:01:10;;;;;;;7.95;2.97;;;;;;;;;;5128999;27;41367;-72
2023/10/06 08:03:39;;;;;;;10.65;3.17;;;;;;;;;;5128200;27;41774;-70
2023/10/06 08:06:07;;;;;;;4.93;2.67;;;;;;;;;;5126252;27;38625;-70
2023/10/06 08:08:36;;;;;;;11.05;3.55;;;;;;;;;;5128239;27;42094;-71
2023/10/06 08:11:05;;;;;;;13.55;3.55;;;;;;;;;;5128404;27;42218;-71
2023/10/06 08:13:33;;;;;;;7.10;3.60;;;;;;;;;;5125517;27;39778;-69
2023/10/06 08:16:02;;;;;;;9.82;3.45;;;;;;;;;;5121992;27;41602;-71
2023/10/06 08:18:30;;;;;;;6.43;2.95;;;;;;;;;;5127650;27;42109;-70
2023/10/06 08:21:00;;;;;;;7.05;2.53;;;;;;;;;;5125655;27;40423;-69
2023/10/06 08:23:29;;;;;;;11.27;3.47;;;;;;;;;;5128616;27;42786;-69
2023/10/06 08:25:57;;;;;;;8.70;3.20;;;;;;;;;;5128168;27;40587;-69
2023/10/06 08:28:31;;;;;;;7.00;3.35;;;;;;;;;;5118883;27;42303;-69
2023/10/06 08:31:02;;;;;;;6.05;3.83;;;;;;;;;;5125082;27;42919;-69
2023/10/06 08:33:35;;;;;;;9.63;4.10;;;;;;;;;;5116545;27;40350;-68
2023/10/06 08:36:08;;;;;;;7.43;3.20;;;;;;;;;;5124580;27;42472;-69
2023/10/06 08:38:36;;;;;;;10.35;3.50;;;;;;;;;;5125366;27;40755;-69
2023/10/06 08:41:04;;;;;;;4.90;2.63;;;;;;;;;;5127740;27;40209;-69
2023/10/06 08:43:33;;;;;;;5.32;2.88;;;;;;;;;;5126545;27;42595;-69
2023/10/06 08:46:02;;;;;;;6.53;3.10;;;;;;;;;;5126135;27;38605;-70
2023/10/06 08:48:31;;;;;;;8.50;4.57;;;;;;;;;;5127970;27;41756;-69
2023/10/06 08:51:03;;;;;;;4.78;2.40;;;;;;;;;;5127747;27;43183;-69
2023/10/06 08:53:31;;;;;;;4.75;3.10;;;;;;;;;;5125299;27;40960;-69
2023/10/06 08:56:00;;;;;;;9.52;3.72;;;;;;;;;;5127234;27;41462;-69
2023/10/06 08:58:29;;;;;;;7.03;3.10;;;;;;;;;;5127336;27;41903;-69
2023/10/06 09:00:57;;;;;;;13.10;3.28;;;;;;;;;;5128237;27;40195;-69
2023/10/06 09:03:27;;;;;;;11.60;3.95;;;;;;;;;;5124773;27;41814;-69
2023/10/06 09:05:56;;;;;;;9.63;3.20;;;;;;;;;;5128304;27;41770;-69
2023/10/06 09:08:25;;;;;;;10.48;3.20;;;;;;;;;;5127847;27;41444;-69
2023/10/06 09:10:54;;;;;;;17.83;4.30;;;;;;;;;;5127550;27;41966;-69
2023/10/06 09:13:22;;;;;;;9.02;3.85;;;;;;;;;;5127238;27;40106;-69
2023/10/06 09:15:56;;;;;;;12.38;3.35;;;;;;;;;;5126920;27;41287;-70
2023/10/06 09:18:27;;;;;;;11.73;3.55;;;;;;;;;;5126662;27;42752;-69
2023/10/06 09:20:56;;;;;;;9.75;3.38;;;;;;;;;;5129635;27;41007;-69
2023/10/06 09:23:32;;;;;;;9.85;3.83;;;;;;;;;;5129732;27;42446;-69
2023/10/06 09:26:00;;;;;;;9.20;3.53;;;;;;;;;;5128274;27;42079;-69
2023/10/06 09:28:30;;;;;;;9.85;3.17;;;;;;;;;;5130818;27;39910;-68
2023/10/06 09:31:00;;;;;;;8.77;3.58;;;;;;;;;;5129221;27;42999;-69
2023/10/06 09:33:29;;;;;;;11.52;3.75;;;;;;;;;;5130139;27;41129;-70
2023/10/06 09:36:06;;;;;;;10.65;3.17;;;;;;;;;;5131151;27;41600;-72
2023/10/06 09:38:38;;;;;;;7.20;3.10;;;;;;;;;;5127526;27;42389;-72
2023/10/06 09:41:07;;;;;;;10.90;3.70;;;;;;;;;;5127876;27;40350;-69
2023/10/06 09:43:36;;;;;;;12.82;4.80;;;;;;;;;;5126394;27;41204;-69
2023/10/06 09:46:06;;;;;;;14.60;3.88;;;;;;;;;;5129522;27;41936;-70
2023/10/06 09:48:36;;;;;;;8.82;3.88;;;;;;;;;;5130425;27;40294;-70
2023/10/06 09:51:06;;;;;;;10.90;4.03;;;;;;;;;;5130747;27;41531;-69
2023/10/06 09:53:38;;;;;;;6.72;3.08;;;;;;;;;;5129057;27;41468;-69
2023/10/06 09:56:07;;;;;;;8.23;3.72;;;;;;;;;;5127358;27;41504;-70
2023/10/06 09:58:36;;;;;;;8.95;3.17;;;;;;;;;;5128970;27;41662;-69
2023/10/06 10:01:04;;;;;;;5.10;3.08;;;;;;;;;;5130866;27;40219;-70
2023/10/06 10:03:34;;;;;;;7.40;3.55;;;;;;;;;;5128520;27;41411;-70
2023/10/06 10:06:04;;;;;;;8.63;3.42;;;;;;;;;;5130338;27;42128;-69
2023/10/06 10:08:32;;;;;;;13.25;4.00;;;;;;;;;;5131413;27;40116;-70
2023/10/06 10:11:03;;;;;;;9.88;3.53;;;;;;;;;;5130539;27;41546;-69
2023/10/06 10:13:37;;;;;;;6.97;3.67;;;;;;;;;;5127125;27;34331;-69
2023/10/06 10:16:11;;;;;;;3.75;2.25;;;;;;;;;;5128744;27;42741;-70
2023/10/06 10:18:39;;;;;;;6.10;3.20;;;;;;;;;;5127555;27;43192;-69
2023/10/06 10:21:11;;;;;;;4.18;3.17;;;;;;;;;;5129400;27;40011;-69
2023/10/06 10:23:40;;;;;;;5.43;2.55;;;;;;;;;;5128572;27;41974;-69
2023/10/06 10:26:18;;;;;;;6.68;3.47;;;;;;;;;;5130025;27;42043;-70
2023/10/06 10:29:00;;;;;;;8.68;3.20;;;;;;;;;;5128518;27;40002;-69
2023/10/06 10:31:31;;;;;;;7.50;3.00;;;;;;;;;;5130457;27;41504;-69
2023/10/06 10:34:01;;;;;;;8.40;2.90;;;;;;;;;;5126552;27;43088;-69
2023/10/06 10:36:49;;;;;;;6.68;3.28;;;;;;;;;;5129697;27;42413;-69
2023/10/06 10:39:18;;;;;;;8.80;4.00;;;;;;;;;;5128348;27;40005;-70
2023/10/06 10:41:48;;;;;;;11.88;3.53;;;;;;;;;;5129145;27;40316;-69
2023/10/06 10:44:20;;;;;;;9.27;3.17;;;;;;;;;;5130156;27;41593;-69
2023/10/06 10:46:56;;;;;;;5.75;3.03;;;;;;;;;;5127085;27;41997;-69
2023/10/06 10:49:24;;;;;;;11.15;2.97;;;;;;;;;;5126619;27;40320;-69
2023/10/06 10:51:53;;;;;;;7.85;2.90;;;;;;;;;;5127749;27;40230;-69
2023/10/06 10:54:22;;;;;;;5.82;3.33;;;;;;;;;;5130316;27;41767;-69
2023/10/06 10:56:53;;;;;;;9.52;3.28;;;;;;;;;;5128831;27;40842;-69
2023/10/06 10:59:21;;;;;;;8.77;4.07;;;;;;;;;;5127668;27;42482;-70
2023/10/06 11:01:51;;;;;;;8.23;3.08;;;;;;;;;;5128956;27;39679;-69
2023/10/06 11:04:21;;;;;;;7.22;2.60;;;;;;;;;;5129376;27;41719;-73
2023/10/06 11:06:50;;;;;;;10.93;2.83;;;;;;;;;;5128321;27;43297;-70
2023/10/06 11:09:29;;;;;;;12.00;3.42;;;;;;;;;;5124811;27;40563;-70
2023/10/06 11:12:00;;;;;;;7.93;3.50;;;;;;;;;;5125661;27;41617;-69
2023/10/06 11:14:49;;;;;;;10.88;3.70;;;;;;;;;;5110016;27;41702;-69
2023/10/06 11:17:21;;;;;;;8.43;2.83;;;;;;;;;;5126648;27;41337;-69
2023/10/06 11:19:59;;;;;;;7.28;2.75;;;;;;;;;;5126174;27;41503;-71
2023/10/06 11:22:31;;;;;;;6.30;2.40;;;;;;;;;;5126980;27;40344;-69
2023/10/06 11:25:02;;;;;;;13.77;3.40;;;;;;;;;;5127782;27;41797;-69
2023/10/06 11:27:31;;;;;;;5.82;2.22;;;;;;;;;;5126131;27;41738;-70
2023/10/06 11:30:00;;;;;;;9.07;3.20;;;;;;;;;;5128318;27;41070;-70
2023/10/06 11:32:28;;;;;;;7.75;2.63;;;;;;;;;;5128008;27;41531;-69
2023/10/06 11:34:56;;;;;;;9.75;2.70;;;;;;;;;;5128946;27;42364;-69
2023/10/06 11:37:25;;;;;;;9.23;3.67;;;;;;;;;;5126957;27;41111;-69
2023/10/06 11:39:53;;;;;;;8.77;3.03;;;;;;;;;;5128565;27;42239;-70
2023/10/06 11:42:35;;;;;;;7.50;3.17;;;;;;;;;;5127041;27;42755;-70
2023/10/06 11:45:11;;;;;;;8.75;3.38;;;;;;;;;;5104270;27;41173;-69
2023/10/06 11:47:40;;;;;;;14.05;3.75;;;;;;;;;;5122253;27;42684;-70
2023/10/06 11:50:09;;;;;;;6.05;2.60;;;;;;;;;;5128149;27;40347;-70
2023/10/06 11:52:37;;;;;;;6.82;3.20;;;;;;;;;;5124083;27;42540;-70
2023/10/06 11:55:09;;;;;;;6.55;2.78;;;;;;;;;;5127635;27;42004;-70
2023/10/06 11:57:46;;;;;;;6.90;2.65;;;;;;;;;;5125547;27;41101;-70
2023/10/06 12:00:17;;;;;;;7.30;3.40;;;;;;;;;;5125683;27;41301;-70
2023/10/06 12:02:46;;;;;;;7.22;3.10;;;;;;;;;;5128912;27;43128;-69
2023/10/06 12:05:14;;;;;;;7.57;3.10;;;;;;;;;;5128500;27;40220;-69
2023/10/06 12:07:42;;;;;;;5.57;1.95;;;;;;;;;;5128024;27;41997;-70
2023/10/06 12:10:10;;;;;;;4.82;2.42;;;;;;;;;;5128163;27;40223;-71
2023/10/06 12:12:40;;;;;;;7.88;2.92;;;;;;;;;;5127602;27;41633;-69
2023/10/06 12:15:13;;;;;;;6.85;1.90;;;;;;;;;;5128190;27;42005;-70
2023/10/06 12:17:41;;;;;;;6.18;3.13;;;;;;;;;;5127776;27;40023;-70
2023/10/06 12:20:13;;;;;;;4.47;2.80;;;;;;;;;;5127057;27;42652;-70
2023/10/06 12:22:42;;;;;;;4.25;2.72;;;;;;;;;;5122683;27;42499;-70
2023/10/06 12:25:12;;;;;;;4.30;2.15;;;;;;;;;;5128041;27;39982;-70
2023/10/06 12:27:43;;;;;;;5.75;2.92;;;;;;;;;;5126377;27;42014;-71
2023/10/06 12:30:13;;;;;;;10.85;3.10;;;;;;;;;;5126686;27;40909;-72
2023/10/06 12:32:42;;;;;;;7.57;2.72;;;;;;;;;;5125780;27;40108;-71
2023/10/06 12:35:10;;;;;;;7.45;3.05;;;;;;;;;;5126733;27;43309;-71
2023/10/06 12:37:41;;;;;;;5.07;2.78;;;;;;;;;;5127156;27;40914;-72
2023/10/06 12:40:10;;;;;;;4.55;2.53;;;;;;;;;;5125499;27;41864;-70
2023/10/06 12:42:38;;;;;;;7.68;3.20;;;;;;;;;;5127765;27;42752;-70
2023/10/06 12:45:08;;;;;;;4.30;2.35;;;;;;;;;;5112441;27;40355;-71
2023/10/06 12:47:38;;;;;;;5.07;2.30;;;;;;;;;;5111563;27;41595;-69
2023/10/06 12:50:08;;;;;;;7.88;2.90;;;;;;;;;;5117339;27;39731;-70
2023/10/06 12:52:36;;;;;;;7.97;2.13;;;;;;;;;;5122495;27;42597;-70
2023/10/06 12:55:10;;;;;;;10.43;3.13;;;;;;;;;;5128007;27;40749;-70
2023/10/06 12:57:38;;;;;;;8.52;2.38;;;;;;;;;;5128244;27;40125;-70
2023/10/06 13:00:07;;;;;;;5.60;3.45;;;;;;;;;;5129473;27;41960;-70
2023/10/06 13:02:36;;;;;;;7.95;2.45;;;;;;;;;;5131649;27;42461;-70
2023/10/06 13:05:08;;;;;;;5.90;2.70;;;;;;;;;;5130259;27;39241;-69
2023/10/06 13:07:36;;;;;;;5.20;2.17;;;;;;;;;;5130240;27;39836;-70
2023/10/06 13:10:08;;;;;;;8.13;2.20;;;;;;;;;;5131911;27;41822;-69
2023/10/06 13:12:39;;;;;;;7.97;3.05;;;;;;;;;;5132453;27;42350;-70
2023/10/06 13:15:08;;;;;;;3.10;2.17;;;;;;;;;;5131823;27;42904;-70
2023/10/06 13:17:38;;;;;;;5.13;3.03;;;;;;;;;;5110825;27;41507;-70
2023/10/06 13:20:07;;;;;;;9.60;2.90;;;;;;;;;;5123651;27;40738;-70
2023/10/06 13:22:36;;;;;;;8.23;3.00;;;;;;;;;;5129603;27;40328;-69
2023/10/06 13:25:06;;;;;;;8.13;3.67;;;;;;;;;;5119851;27;40088;-70
2023/10/06 13:27:34;;;;;;;9.57;3.30;;;;;;;;;;5129740;27;42735;-70
2023/10/06 13:30:06;;;;;;;7.60;3.08;;;;;;;;;;5131033;27;42698;-70
2023/10/06 13:32:36;;;;;;;6.47;2.53;;;;;;;;;;5131562;27;40239;-70
2023/10/06 13:35:11;;;;;;;4.50;2.63;;;;;;;;;;5131400;27;41512;-70
2023/10/06 13:37:40;;;;;;;6.82;2.40;;;;;;;;;;5130803;27;41452;-69
2023/10/06 13:40:10;;;;;;;5.80;2.28;;;;;;;;;;5127184;27;42606;-69
2023/10/06 13:42:41;;;;;;;5.35;2.20;;;;;;;;;;5127963;27;43127;-69
2023/10/06 13:45:14;;;;;;;4.57;2.10;;;;;;;;;;5127867;27;41336;-69
2023/10/06 13:47:43;;;;;;;9.98;3.15;;;;;;;;;;5130123;27;42627;-70
2023/10/06 13:50:13;;;;;;;6.88;3.00;;;;;;;;;;5131626;27;42747;-70
2023/10/06 13:52:42;;;;;;;8.43;3.03;;;;;;;;;;5130295;27;40629;-70
2023/10/06 13:55:11;;;;;;;7.80;3.60;;;;;;;;;;5130787;27;41329;-70
2023/10/06 13:57:39;;;;;;;8.05;2.90;;;;;;;;;;5130783;27;40333;-70
2023/10/06 14:00:11;;;;;;;5.22;2.53;;;;;;;;;;5128166;27;41489;-69
2023/10/06 14:02:39;;;;;;;4.93;2.80;;;;;;;;;;5120828;27;42201;-69
2023/10/06 14:05:09;;;;;;;7.45;3.38;;;;;;;;;;5130622;27;39932;-70
2023/10/06 14:07:40;;;;;;;5.90;2.72;;;;;;;;;;5130353;27;41547;-69
2023/10/06 14:10:13;;;;;;;5.55;3.10;;;;;;;;;;5128085;27;41749;-69
2023/10/06 14:12:43;;;;;;;5.68;2.95;;;;;;;;;;5122576;27;39835;-69
2023/10/06 14:15:22;;;;;;;7.00;3.22;;;;;;;;;;5125642;27;41914;-70
2023/10/06 14:17:52;;;;;;;6.80;3.00;;;;;;;;;;5119407;27;42184;-70
2023/10/06 14:20:29;;;;;;;7.35;3.58;;;;;;;;;;5122385;27;43842;-70
2023/10/06 14:22:59;;;;;;;7.45;3.10;;;;;;;;;;5127561;27;43250;-69
2023/10/06 14:25:27;;;;;;;8.90;3.45;;;;;;;;;;5116304;27;39814;-70
2023/10/06 14:27:55;;;;;;;7.93;3.75;;;;;;;;;;5130112;27;41375;-70
2023/10/06 14:30:25;;;;;;;6.43;3.10;;;;;;;;;;5130997;27;41995;-69
2023/10/06 14:33:14;;;;;;;5.88;3.50;;;;;;;;;;5122795;27;40038;-70
2023/10/06 14:35:53;;;;;;;9.35;3.45;;;;;;;;;;5127296;27;42125;-70
2023/10/06 14:46:41;;;;;;;10.57;3.72;;;;;;;;;;5125042;27;40346;-70
2023/10/06 14:49:12;;;;;;;7.72;3.30;;;;;;;;;;5130171;27;42325;-70
2023/10/06 14:51:41;;;;;;;9.27;3.60;;;;;;;;;;5126311;27;42375;-69
2023/10/06 14:54:10;;;;;;;9.80;3.28;;;;;;;;;;5128387;27;40231;-70
2023/10/06 14:56:39;;;;;;;9.40;3.50;;;;;;;;;;5127946;27;42557;-70
2023/10/06 14:59:09;;;;;;;11.40;3.42;;;;;;;;;;5129526;27;42121;-69
2023/10/06 15:01:39;;;;;;;11.02;3.65;;;;;;;;;;5126141;27;40488;-69
2023/10/06 15:04:12;;;;;;;8.07;3.47;;;;;;;;;;5120579;27;41200;-70
2023/10/06 15:06:41;;;;;;;5.85;3.10;;;;;;;;;;5126488;27;39713;-69
2023/10/06 15:09:17;;;;;;;14.32;3.75;;;;;;;;;;5128926;27;41690;-70